sensor_id;sensor_type;location;lat;lon;timestamp;P1;durP1;ratioP1;P2;durP2;ratioP2
59587;SDS011;45412;54.472;18.464;2022-09-09T00:04:30;6.70;;;2.10;;
59587;SDS011;45412;54.472;18.464;2022-09-09T00:10:42;6.90;;;2.20;;
59587;SDS011;45412;54.472;18.464;2022-09-09T00:13:48;7.60;;;2.20;;
59587;SDS011;45412;54.472;18.464;2022-09-09T00:16:40;10.80;;;2.20;;
59587;SDS011;45412;54.472;18.464;2022-09-09T00:19:50;9.80;;;2.40;;
59587;SDS011;45412;54.472;18.464;2022-09-09T00:23:12;8.60;;;2.30;;
59587;SDS011;45412;54.472;18.464;2022-09-09T00:26:17;6.00;;;1.70;;
59587;SDS011;45412;54.472;18.464;2022-09-09T00:29:28;8.30;;;1.70;;
59587;SDS011;45412;54.472;18.464;2022-09-09T00:32:32;8.80;;;2.30;;
59587;SDS011;45412;54.472;18.464;2022-09-09T00:35:32;9.60;;;2.30;;
59587;SDS011;45412;54.472;18.464;2022-09-09T00:38:32;7.20;;;2.00;;
59587;SDS011;45412;54.472;18.464;2022-09-09T00:47:50;6.60;;;2.10;;
59587;SDS011;45412;54.472;18.464;2022-09-09T00:51:02;6.90;;;2.10;;
59587;SDS011;45412;54.472;18.464;2022-09-09T00:54:13;8.30;;;2.20;;
59587;SDS011;45412;54.472;18.464;2022-09-09T01:00:30;7.90;;;2.10;;
59587;SDS011;45412;54.472;18.464;2022-09-09T01:03:41;7.40;;;1.90;;
59587;SDS011;45412;54.472;18.464;2022-09-09T01:06:37;8.30;;;2.10;;
59587;SDS011;45412;54.472;18.464;2022-09-09T01:12:44;8.40;;;3.30;;
59587;SDS011;45412;54.472;18.464;2022-09-09T01:15:38;7.00;;;2.00;;
59587;SDS011;45412;54.472;18.464;2022-09-09T01:18:52;9.50;;;2.30;;
59587;SDS011;45412;54.472;18.464;2022-09-09T01:21:50;8.10;;;2.10;;
59587;SDS011;45412;54.472;18.464;2022-09-09T01:25:21;6.50;;;1.90;;
59587;SDS011;45412;54.472;18.464;2022-09-09T01:28:26;7.20;;;2.10;;
59587;SDS011;45412;54.472;18.464;2022-09-09T01:31:37;9.00;;;2.50;;
59587;SDS011;45412;54.472;18.464;2022-09-09T01:34:35;6.50;;;1.90;;
59587;SDS011;45412;54.472;18.464;2022-09-09T01:37:27;7.60;;;2.00;;
59587;SDS011;45412;54.472;18.464;2022-09-09T01:40:16;6.90;;;2.20;;
59587;SDS011;45412;54.472;18.464;2022-09-09T01:43:07;7.90;;;2.30;;
59587;SDS011;45412;54.472;18.464;2022-09-09T01:45:58;8.50;;;1.90;;
59587;SDS011;45412;54.472;18.464;2022-09-09T01:48:51;6.00;;;2.10;;
59587;SDS011;45412;54.472;18.464;2022-09-09T01:51:41;7.60;;;1.90;;
59587;SDS011;45412;54.472;18.464;2022-09-09T01:54:33;5.30;;;1.60;;
59587;SDS011;45412;54.472;18.464;2022-09-09T01:57:31;8.30;;;2.00;;
59587;SDS011;45412;54.472;18.464;2022-09-09T02:00:27;7.90;;;1.90;;
59587;SDS011;45412;54.472;18.464;2022-09-09T02:03:29;7.20;;;1.90;;
59587;SDS011;45412;54.472;18.464;2022-09-09T02:06:35;7.10;;;2.10;;
59587;SDS011;45412;54.472;18.464;2022-09-09T02:09:37;6.10;;;1.70;;
59587;SDS011;45412;54.472;18.464;2022-09-09T02:12:30;8.00;;;2.00;;
59587;SDS011;45412;54.472;18.464;2022-09-09T02:15:30;7.40;;;2.30;;
59587;SDS011;45412;54.472;18.464;2022-09-09T02:18:40;8.90;;;2.20;;
59587;SDS011;45412;54.472;18.464;2022-09-09T02:21:36;7.20;;;2.20;;
59587;SDS011;45412;54.472;18.464;2022-09-09T02:24:24;6.70;;;2.30;;
59587;SDS011;45412;54.472;18.464;2022-09-09T02:27:23;6.50;;;1.80;;
59587;SDS011;45412;54.472;18.464;2022-09-09T02:30:12;9.60;;;2.10;;
59587;SDS011;45412;54.472;18.464;2022-09-09T02:33:05;7.10;;;1.90;;
59587;SDS011;45412;54.472;18.464;2022-09-09T02:36:01;9.60;;;2.00;;
59587;SDS011;45412;54.472;18.464;2022-09-09T02:38:51;7.50;;;1.90;;
59587;SDS011;45412;54.472;18.464;2022-09-09T02:41:43;8.70;;;2.00;;
59587;SDS011;45412;54.472;18.464;2022-09-09T02:44:31;8.10;;;2.10;;
59587;SDS011;45412;54.472;18.464;2022-09-09T02:50:33;8.80;;;2.40;;
59587;SDS011;45412;54.472;18.464;2022-09-09T02:53:29;10.60;;;2.30;;
59587;SDS011;45412;54.472;18.464;2022-09-09T02:56:30;8.10;;;2.30;;
59587;SDS011;45412;54.472;18.464;2022-09-09T02:59:22;7.60;;;2.20;;
59587;SDS011;45412;54.472;18.464;2022-09-09T03:02:14;7.30;;;2.10;;
59587;SDS011;45412;54.472;18.464;2022-09-09T03:05:03;7.70;;;2.00;;
59587;SDS011;45412;54.472;18.464;2022-09-09T03:07:53;9.40;;;2.40;;
59587;SDS011;45412;54.472;18.464;2022-09-09T03:10:41;11.30;;;2.20;;
59587;SDS011;45412;54.472;18.464;2022-09-09T03:13:30;9.20;;;2.30;;
59587;SDS011;45412;54.472;18.464;2022-09-09T03:16:17;8.40;;;2.60;;
59587;SDS011;45412;54.472;18.464;2022-09-09T03:19:08;9.90;;;3.30;;
59587;SDS011;45412;54.472;18.464;2022-09-09T03:21:57;7.30;;;2.10;;
59587;SDS011;45412;54.472;18.464;2022-09-09T03:24:46;8.60;;;1.90;;
59587;SDS011;45412;54.472;18.464;2022-09-09T03:27:34;8.90;;;2.30;;
59587;SDS011;45412;54.472;18.464;2022-09-09T03:30:24;9.30;;;2.20;;
59587;SDS011;45412;54.472;18.464;2022-09-09T03:33:14;8.30;;;2.00;;
59587;SDS011;45412;54.472;18.464;2022-09-09T03:36:05;8.80;;;2.40;;
59587;SDS011;45412;54.472;18.464;2022-09-09T03:38:54;8.20;;;2.50;;
59587;SDS011;45412;54.472;18.464;2022-09-09T03:41:43;12.40;;;2.90;;
59587;SDS011;45412;54.472;18.464;2022-09-09T03:44:34;8.10;;;2.50;;
59587;SDS011;45412;54.472;18.464;2022-09-09T03:47:22;8.70;;;2.50;;
59587;SDS011;45412;54.472;18.464;2022-09-09T03:50:14;8.10;;;2.90;;
59587;SDS011;45412;54.472;18.464;2022-09-09T03:53:05;7.60;;;3.10;;
59587;SDS011;45412;54.472;18.464;2022-09-09T03:55:55;8.30;;;2.60;;
59587;SDS011;45412;54.472;18.464;2022-09-09T03:58:47;11.20;;;3.20;;
59587;SDS011;45412;54.472;18.464;2022-09-09T04:01:35;12.40;;;3.10;;
59587;SDS011;45412;54.472;18.464;2022-09-09T04:04:23;8.30;;;2.60;;
59587;SDS011;45412;54.472;18.464;2022-09-09T04:07:15;8.10;;;2.80;;
59587;SDS011;45412;54.472;18.464;2022-09-09T04:10:04;8.60;;;3.30;;
59587;SDS011;45412;54.472;18.464;2022-09-09T04:12:53;9.20;;;3.10;;
59587;SDS011;45412;54.472;18.464;2022-09-09T04:15:41;9.50;;;3.20;;
59587;SDS011;45412;54.472;18.464;2022-09-09T04:18:30;9.40;;;3.40;;
59587;SDS011;45412;54.472;18.464;2022-09-09T04:21:19;7.50;;;2.90;;
59587;SDS011;45412;54.472;18.464;2022-09-09T04:24:07;9.60;;;3.40;;
59587;SDS011;45412;54.472;18.464;2022-09-09T04:26:56;9.30;;;3.50;;
59587;SDS011;45412;54.472;18.464;2022-09-09T04:29:44;10.00;;;4.40;;
59587;SDS011;45412;54.472;18.464;2022-09-09T04:32:33;9.90;;;3.70;;
59587;SDS011;45412;54.472;18.464;2022-09-09T04:35:21;8.90;;;3.50;;
59587;SDS011;45412;54.472;18.464;2022-09-09T04:38:10;8.90;;;3.60;;
59587;SDS011;45412;54.472;18.464;2022-09-09T04:40:59;9.40;;;3.70;;
59587;SDS011;45412;54.472;18.464;2022-09-09T04:43:48;9.10;;;3.80;;
59587;SDS011;45412;54.472;18.464;2022-09-09T04:46:38;9.40;;;3.70;;
59587;SDS011;45412;54.472;18.464;2022-09-09T04:49:30;9.40;;;3.40;;
59587;SDS011;45412;54.472;18.464;2022-09-09T04:52:19;11.60;;;3.90;;
59587;SDS011;45412;54.472;18.464;2022-09-09T04:55:08;10.50;;;3.60;;
59587;SDS011;45412;54.472;18.464;2022-09-09T04:57:57;9.30;;;3.50;;
59587;SDS011;45412;54.472;18.464;2022-09-09T05:00:45;11.00;;;4.40;;
59587;SDS011;45412;54.472;18.464;2022-09-09T05:03:34;10.10;;;3.50;;
59587;SDS011;45412;54.472;18.464;2022-09-09T05:06:22;11.20;;;4.10;;
59587;SDS011;45412;54.472;18.464;2022-09-09T05:09:15;11.30;;;5.40;;
59587;SDS011;45412;54.472;18.464;2022-09-09T05:12:04;9.30;;;3.90;;
59587;SDS011;45412;54.472;18.464;2022-09-09T05:14:55;9.70;;;4.30;;
59587;SDS011;45412;54.472;18.464;2022-09-09T05:17:43;10.90;;;3.80;;
59587;SDS011;45412;54.472;18.464;2022-09-09T05:20:31;8.40;;;3.40;;
59587;SDS011;45412;54.472;18.464;2022-09-09T05:23:19;10.00;;;4.30;;
59587;SDS011;45412;54.472;18.464;2022-09-09T05:26:11;8.10;;;3.70;;
59587;SDS011;45412;54.472;18.464;2022-09-09T05:29:06;12.30;;;4.10;;
59587;SDS011;45412;54.472;18.464;2022-09-09T05:31:55;8.90;;;3.20;;
59587;SDS011;45412;54.472;18.464;2022-09-09T05:34:44;9.40;;;3.20;;
59587;SDS011;45412;54.472;18.464;2022-09-09T05:37:32;9.90;;;4.00;;
59587;SDS011;45412;54.472;18.464;2022-09-09T05:40:22;9.10;;;3.50;;
59587;SDS011;45412;54.472;18.464;2022-09-09T05:43:10;10.80;;;4.20;;
59587;SDS011;45412;54.472;18.464;2022-09-09T05:46:09;8.80;;;3.40;;
59587;SDS011;45412;54.472;18.464;2022-09-09T05:48:58;9.40;;;3.80;;
59587;SDS011;45412;54.472;18.464;2022-09-09T05:51:48;11.80;;;3.90;;
59587;SDS011;45412;54.472;18.464;2022-09-09T05:54:38;9.20;;;3.50;;
59587;SDS011;45412;54.472;18.464;2022-09-09T05:57:28;9.40;;;3.90;;
59587;SDS011;45412;54.472;18.464;2022-09-09T06:00:16;10.40;;;3.10;;
59587;SDS011;45412;54.472;18.464;2022-09-09T06:03:05;8.30;;;2.80;;
59587;SDS011;45412;54.472;18.464;2022-09-09T06:06:00;9.40;;;3.10;;
59587;SDS011;45412;54.472;18.464;2022-09-09T06:08:54;9.60;;;3.00;;
59587;SDS011;45412;54.472;18.464;2022-09-09T06:11:50;10.10;;;3.40;;
59587;SDS011;45412;54.472;18.464;2022-09-09T06:14:39;8.00;;;3.40;;
59587;SDS011;45412;54.472;18.464;2022-09-09T06:17:32;8.20;;;3.10;;
59587;SDS011;45412;54.472;18.464;2022-09-09T06:20:21;8.00;;;3.00;;
59587;SDS011;45412;54.472;18.464;2022-09-09T06:23:09;7.80;;;3.30;;
59587;SDS011;45412;54.472;18.464;2022-09-09T06:26:24;7.20;;;3.00;;
59587;SDS011;45412;54.472;18.464;2022-09-09T06:29:15;8.10;;;3.10;;
59587;SDS011;45412;54.472;18.464;2022-09-09T06:32:03;9.70;;;2.90;;
59587;SDS011;45412;54.472;18.464;2022-09-09T06:34:51;9.30;;;3.20;;
59587;SDS011;45412;54.472;18.464;2022-09-09T06:37:39;11.80;;;3.50;;
59587;SDS011;45412;54.472;18.464;2022-09-09T06:40:27;8.30;;;3.30;;
59587;SDS011;45412;54.472;18.464;2022-09-09T06:43:15;9.70;;;4.00;;
59587;SDS011;45412;54.472;18.464;2022-09-09T06:46:19;9.40;;;3.10;;
59587;SDS011;45412;54.472;18.464;2022-09-09T06:49:15;8.30;;;2.70;;
59587;SDS011;45412;54.472;18.464;2022-09-09T06:52:03;8.60;;;2.80;;
59587;SDS011;45412;54.472;18.464;2022-09-09T06:54:51;7.60;;;2.80;;
59587;SDS011;45412;54.472;18.464;2022-09-09T06:57:41;7.80;;;2.80;;
59587;SDS011;45412;54.472;18.464;2022-09-09T07:00:32;9.20;;;3.00;;
59587;SDS011;45412;54.472;18.464;2022-09-09T07:03:21;7.40;;;2.90;;
59587;SDS011;45412;54.472;18.464;2022-09-09T07:06:16;8.60;;;3.00;;
59587;SDS011;45412;54.472;18.464;2022-09-09T07:09:16;7.80;;;2.80;;
59587;SDS011;45412;54.472;18.464;2022-09-09T07:12:06;8.90;;;2.80;;
59587;SDS011;45412;54.472;18.464;2022-09-09T07:14:55;8.40;;;2.50;;
59587;SDS011;45412;54.472;18.464;2022-09-09T07:17:43;7.00;;;2.70;;
59587;SDS011;45412;54.472;18.464;2022-09-09T07:20:31;7.00;;;2.50;;
59587;SDS011;45412;54.472;18.464;2022-09-09T07:23:19;7.00;;;2.30;;
59587;SDS011;45412;54.472;18.464;2022-09-09T07:26:13;9.20;;;3.10;;
59587;SDS011;45412;54.472;18.464;2022-09-09T07:29:04;7.90;;;2.90;;
59587;SDS011;45412;54.472;18.464;2022-09-09T07:31:53;7.60;;;2.90;;
59587;SDS011;45412;54.472;18.464;2022-09-09T07:34:45;7.40;;;2.40;;
59587;SDS011;45412;54.472;18.464;2022-09-09T07:37:36;7.00;;;2.60;;
59587;SDS011;45412;54.472;18.464;2022-09-09T07:40:25;7.30;;;2.90;;
59587;SDS011;45412;54.472;18.464;2022-09-09T07:43:13;6.80;;;2.60;;
59587;SDS011;45412;54.472;18.464;2022-09-09T07:46:04;8.90;;;3.30;;
59587;SDS011;45412;54.472;18.464;2022-09-09T07:48:54;7.60;;;2.60;;
59587;SDS011;45412;54.472;18.464;2022-09-09T07:51:46;7.70;;;3.10;;
59587;SDS011;45412;54.472;18.464;2022-09-09T07:54:36;8.40;;;3.10;;
59587;SDS011;45412;54.472;18.464;2022-09-09T07:57:26;7.70;;;3.50;;
59587;SDS011;45412;54.472;18.464;2022-09-09T08:00:15;8.20;;;3.30;;
59587;SDS011;45412;54.472;18.464;2022-09-09T08:03:07;7.90;;;3.20;;
59587;SDS011;45412;54.472;18.464;2022-09-09T08:06:00;8.90;;;3.10;;
59587;SDS011;45412;54.472;18.464;2022-09-09T08:08:51;8.70;;;3.10;;
59587;SDS011;45412;54.472;18.464;2022-09-09T08:11:40;7.30;;;3.10;;
59587;SDS011;45412;54.472;18.464;2022-09-09T08:14:31;8.10;;;3.00;;
59587;SDS011;45412;54.472;18.464;2022-09-09T08:17:19;7.50;;;2.90;;
59587;SDS011;45412;54.472;18.464;2022-09-09T08:20:08;8.90;;;3.40;;
59587;SDS011;45412;54.472;18.464;2022-09-09T08:22:57;8.80;;;3.30;;
59587;SDS011;45412;54.472;18.464;2022-09-09T08:25:45;7.90;;;3.80;;
59587;SDS011;45412;54.472;18.464;2022-09-09T08:28:33;9.20;;;3.80;;
59587;SDS011;45412;54.472;18.464;2022-09-09T08:31:26;8.10;;;3.70;;
59587;SDS011;45412;54.472;18.464;2022-09-09T08:34:17;8.80;;;3.40;;
59587;SDS011;45412;54.472;18.464;2022-09-09T08:37:09;8.10;;;3.60;;
59587;SDS011;45412;54.472;18.464;2022-09-09T08:39:59;8.80;;;3.40;;
59587;SDS011;45412;54.472;18.464;2022-09-09T08:42:51;8.80;;;3.90;;
59587;SDS011;45412;54.472;18.464;2022-09-09T08:46:11;8.80;;;4.10;;
59587;SDS011;45412;54.472;18.464;2022-09-09T08:49:53;8.50;;;3.60;;
59587;SDS011;45412;54.472;18.464;2022-09-09T08:52:36;8.10;;;3.60;;
59587;SDS011;45412;54.472;18.464;2022-09-09T08:58:49;10.10;;;3.60;;
59587;SDS011;45412;54.472;18.464;2022-09-09T09:02:08;7.00;;;2.80;;
59587;SDS011;45412;54.472;18.464;2022-09-09T09:08:26;7.50;;;3.00;;
59587;SDS011;45412;54.472;18.464;2022-09-09T09:11:50;8.60;;;3.50;;
59587;SDS011;45412;54.472;18.464;2022-09-09T09:14:43;7.70;;;2.90;;
59587;SDS011;45412;54.472;18.464;2022-09-09T09:17:34;9.60;;;3.40;;
59587;SDS011;45412;54.472;18.464;2022-09-09T09:23:39;7.70;;;3.20;;
59587;SDS011;45412;54.472;18.464;2022-09-09T09:26:35;6.90;;;2.60;;
59587;SDS011;45412;54.472;18.464;2022-09-09T09:29:25;9.40;;;2.90;;
59587;SDS011;45412;54.472;18.464;2022-09-09T09:32:17;7.00;;;2.90;;
59587;SDS011;45412;54.472;18.464;2022-09-09T09:35:12;6.60;;;2.60;;
59587;SDS011;45412;54.472;18.464;2022-09-09T09:38:27;6.40;;;2.50;;
59587;SDS011;45412;54.472;18.464;2022-09-09T09:41:38;6.40;;;2.50;;
59587;SDS011;45412;54.472;18.464;2022-09-09T09:44:30;7.60;;;2.70;;
59587;SDS011;45412;54.472;18.464;2022-09-09T09:47:24;7.10;;;2.50;;
59587;SDS011;45412;54.472;18.464;2022-09-09T09:50:32;6.50;;;2.80;;
59587;SDS011;45412;54.472;18.464;2022-09-09T09:53:27;8.90;;;3.50;;
59587;SDS011;45412;54.472;18.464;2022-09-09T09:56:17;8.20;;;3.10;;
59587;SDS011;45412;54.472;18.464;2022-09-09T09:59:35;7.30;;;3.20;;
59587;SDS011;45412;54.472;18.464;2022-09-09T10:02:48;6.80;;;3.30;;
59587;SDS011;45412;54.472;18.464;2022-09-09T10:05:45;9.00;;;3.90;;
59587;SDS011;45412;54.472;18.464;2022-09-09T10:08:44;9.50;;;3.40;;
59587;SDS011;45412;54.472;18.464;2022-09-09T10:15:11;9.00;;;3.80;;
59587;SDS011;45412;54.472;18.464;2022-09-09T10:18:30;8.20;;;3.60;;
59587;SDS011;45412;54.472;18.464;2022-09-09T10:25:43;8.90;;;3.50;;
59587;SDS011;45412;54.472;18.464;2022-09-09T10:29:06;8.30;;;4.60;;
59587;SDS011;45412;54.472;18.464;2022-09-09T10:32:33;9.70;;;4.60;;
59587;SDS011;45412;54.472;18.464;2022-09-09T10:35:31;11.20;;;4.40;;
59587;SDS011;45412;54.472;18.464;2022-09-09T10:38:40;9.00;;;4.50;;
59587;SDS011;45412;54.472;18.464;2022-09-09T10:41:51;8.90;;;4.30;;
59587;SDS011;45412;54.472;18.464;2022-09-09T10:48:44;9.70;;;4.70;;
59587;SDS011;45412;54.472;18.464;2022-09-09T10:55:21;10.50;;;5.10;;
59587;SDS011;45412;54.472;18.464;2022-09-09T10:58:50;10.40;;;4.40;;
59587;SDS011;45412;54.472;18.464;2022-09-09T11:01:59;9.80;;;5.40;;
59587;SDS011;45412;54.472;18.464;2022-09-09T11:11:48;13.30;;;5.20;;
59587;SDS011;45412;54.472;18.464;2022-09-09T11:14:44;10.40;;;4.80;;
59587;SDS011;45412;54.472;18.464;2022-09-09T11:17:46;11.80;;;5.60;;
59587;SDS011;45412;54.472;18.464;2022-09-09T11:20:38;10.70;;;5.10;;
59587;SDS011;45412;54.472;18.464;2022-09-09T11:23:48;9.50;;;4.70;;
59587;SDS011;45412;54.472;18.464;2022-09-09T11:27:08;11.50;;;5.10;;
59587;SDS011;45412;54.472;18.464;2022-09-09T11:30:22;9.50;;;4.60;;
59587;SDS011;45412;54.472;18.464;2022-09-09T11:40:28;12.10;;;5.40;;
59587;SDS011;45412;54.472;18.464;2022-09-09T11:43:47;9.80;;;5.00;;
59587;SDS011;45412;54.472;18.464;2022-09-09T11:46:39;11.10;;;5.20;;
59587;SDS011;45412;54.472;18.464;2022-09-09T11:49:40;11.10;;;5.10;;
59587;SDS011;45412;54.472;18.464;2022-09-09T11:52:44;10.10;;;4.90;;
59587;SDS011;45412;54.472;18.464;2022-09-09T11:55:36;10.80;;;5.60;;
59587;SDS011;45412;54.472;18.464;2022-09-09T11:58:24;9.70;;;5.20;;
59587;SDS011;45412;54.472;18.464;2022-09-09T12:01:26;10.70;;;5.10;;
59587;SDS011;45412;54.472;18.464;2022-09-09T12:04:30;9.80;;;5.00;;
59587;SDS011;45412;54.472;18.464;2022-09-09T12:07:33;10.50;;;6.00;;
59587;SDS011;45412;54.472;18.464;2022-09-09T12:10:32;10.70;;;5.00;;
59587;SDS011;45412;54.472;18.464;2022-09-09T12:13:25;11.20;;;5.30;;
59587;SDS011;45412;54.472;18.464;2022-09-09T12:16:35;11.90;;;6.00;;
59587;SDS011;45412;54.472;18.464;2022-09-09T12:19:26;9.60;;;5.10;;
59587;SDS011;45412;54.472;18.464;2022-09-09T12:32:15;10.80;;;5.40;;
59587;SDS011;45412;54.472;18.464;2022-09-09T12:35:21;9.60;;;4.90;;
59587;SDS011;45412;54.472;18.464;2022-09-09T12:38:47;11.60;;;5.60;;
59587;SDS011;45412;54.472;18.464;2022-09-09T12:41:36;12.00;;;5.30;;
59587;SDS011;45412;54.472;18.464;2022-09-09T12:44:30;10.30;;;5.50;;
59587;SDS011;45412;54.472;18.464;2022-09-09T12:47:24;10.10;;;4.90;;
59587;SDS011;45412;54.472;18.464;2022-09-09T12:50:50;10.20;;;4.80;;
59587;SDS011;45412;54.472;18.464;2022-09-09T12:53:44;11.60;;;4.70;;
59587;SDS011;45412;54.472;18.464;2022-09-09T12:56:37;12.70;;;4.80;;
59587;SDS011;45412;54.472;18.464;2022-09-09T12:59:27;13.70;;;4.90;;
59587;SDS011;45412;54.472;18.464;2022-09-09T13:02:28;9.60;;;4.60;;
59587;SDS011;45412;54.472;18.464;2022-09-09T13:05:36;9.60;;;4.70;;
59587;SDS011;45412;54.472;18.464;2022-09-09T13:08:26;8.70;;;4.30;;
59587;SDS011;45412;54.472;18.464;2022-09-09T13:11:18;9.70;;;4.80;;
59587;SDS011;45412;54.472;18.464;2022-09-09T13:14:31;8.50;;;4.70;;
59587;SDS011;45412;54.472;18.464;2022-09-09T13:17:26;8.20;;;4.10;;
59587;SDS011;45412;54.472;18.464;2022-09-09T13:20:18;8.80;;;4.70;;
59587;SDS011;45412;54.472;18.464;2022-09-09T13:23:10;8.30;;;4.30;;
59587;SDS011;45412;54.472;18.464;2022-09-09T13:26:01;8.00;;;4.00;;
59587;SDS011;45412;54.472;18.464;2022-09-09T13:28:54;8.60;;;4.60;;
59587;SDS011;45412;54.472;18.464;2022-09-09T13:31:46;8.60;;;4.40;;
59587;SDS011;45412;54.472;18.464;2022-09-09T13:37:45;7.70;;;4.00;;
59587;SDS011;45412;54.472;18.464;2022-09-09T13:40:35;8.50;;;3.90;;
59587;SDS011;45412;54.472;18.464;2022-09-09T13:43:25;7.10;;;3.50;;
59587;SDS011;45412;54.472;18.464;2022-09-09T13:46:33;8.30;;;3.90;;
59587;SDS011;45412;54.472;18.464;2022-09-09T13:49:29;8.20;;;3.50;;
59587;SDS011;45412;54.472;18.464;2022-09-09T13:52:21;8.50;;;4.10;;
59587;SDS011;45412;54.472;18.464;2022-09-09T13:55:12;8.30;;;3.70;;
59587;SDS011;45412;54.472;18.464;2022-09-09T13:58:02;7.60;;;3.70;;
59587;SDS011;45412;54.472;18.464;2022-09-09T14:00:54;8.00;;;3.60;;
59587;SDS011;45412;54.472;18.464;2022-09-09T14:03:46;8.20;;;4.20;;
59587;SDS011;45412;54.472;18.464;2022-09-09T14:06:35;9.00;;;3.60;;
59587;SDS011;45412;54.472;18.464;2022-09-09T14:09:26;8.70;;;4.50;;
59587;SDS011;45412;54.472;18.464;2022-09-09T14:12:17;8.60;;;4.10;;
59587;SDS011;45412;54.472;18.464;2022-09-09T14:15:07;11.10;;;4.20;;
59587;SDS011;45412;54.472;18.464;2022-09-09T14:17:58;9.10;;;4.10;;
59587;SDS011;45412;54.472;18.464;2022-09-09T14:20:46;7.90;;;3.50;;
59587;SDS011;45412;54.472;18.464;2022-09-09T14:23:35;9.20;;;4.20;;
59587;SDS011;45412;54.472;18.464;2022-09-09T14:26:24;10.10;;;5.30;;
59587;SDS011;45412;54.472;18.464;2022-09-09T14:29:12;10.00;;;4.80;;
59587;SDS011;45412;54.472;18.464;2022-09-09T14:32:00;9.40;;;5.20;;
59587;SDS011;45412;54.472;18.464;2022-09-09T14:34:48;10.10;;;5.30;;
59587;SDS011;45412;54.472;18.464;2022-09-09T14:37:36;10.00;;;5.20;;
59587;SDS011;45412;54.472;18.464;2022-09-09T14:40:26;10.20;;;5.60;;
59587;SDS011;45412;54.472;18.464;2022-09-09T14:43:16;10.60;;;5.80;;
59587;SDS011;45412;54.472;18.464;2022-09-09T14:46:08;12.10;;;5.60;;
59587;SDS011;45412;54.472;18.464;2022-09-09T14:48:58;11.60;;;6.30;;
59587;SDS011;45412;54.472;18.464;2022-09-09T14:51:46;12.90;;;6.50;;
59587;SDS011;45412;54.472;18.464;2022-09-09T14:54:34;9.60;;;5.60;;
59587;SDS011;45412;54.472;18.464;2022-09-09T14:57:22;11.10;;;6.10;;
59587;SDS011;45412;54.472;18.464;2022-09-09T15:00:11;11.80;;;6.20;;
59587;SDS011;45412;54.472;18.464;2022-09-09T15:03:01;11.20;;;6.30;;
59587;SDS011;45412;54.472;18.464;2022-09-09T15:05:49;10.60;;;6.00;;
59587;SDS011;45412;54.472;18.464;2022-09-09T15:08:38;10.60;;;5.90;;
59587;SDS011;45412;54.472;18.464;2022-09-09T15:11:32;11.20;;;6.70;;
59587;SDS011;45412;54.472;18.464;2022-09-09T15:14:26;11.10;;;6.40;;
59587;SDS011;45412;54.472;18.464;2022-09-09T15:17:14;12.60;;;6.60;;
59587;SDS011;45412;54.472;18.464;2022-09-09T15:20:03;12.40;;;6.50;;
59587;SDS011;45412;54.472;18.464;2022-09-09T15:22:52;11.30;;;6.70;;
59587;SDS011;45412;54.472;18.464;2022-09-09T15:25:51;11.20;;;6.70;;
59587;SDS011;45412;54.472;18.464;2022-09-09T15:28:41;12.30;;;6.80;;
59587;SDS011;45412;54.472;18.464;2022-09-09T15:31:32;11.50;;;6.40;;
59587;SDS011;45412;54.472;18.464;2022-09-09T15:34:19;10.50;;;6.40;;
59587;SDS011;45412;54.472;18.464;2022-09-09T15:37:10;11.50;;;5.90;;
59587;SDS011;45412;54.472;18.464;2022-09-09T15:40:00;12.30;;;7.00;;
59587;SDS011;45412;54.472;18.464;2022-09-09T15:42:49;10.90;;;6.60;;
59587;SDS011;45412;54.472;18.464;2022-09-09T15:45:37;12.40;;;7.20;;
59587;SDS011;45412;54.472;18.464;2022-09-09T15:48:31;13.30;;;7.80;;
59587;SDS011;45412;54.472;18.464;2022-09-09T15:51:22;12.60;;;7.30;;
59587;SDS011;45412;54.472;18.464;2022-09-09T15:54:34;10.10;;;6.00;;
59587;SDS011;45412;54.472;18.464;2022-09-09T15:57:26;12.80;;;7.40;;
59587;SDS011;45412;54.472;18.464;2022-09-09T16:00:14;13.30;;;7.90;;
59587;SDS011;45412;54.472;18.464;2022-09-09T16:03:03;13.80;;;7.80;;
59587;SDS011;45412;54.472;18.464;2022-09-09T16:05:51;13.30;;;7.40;;
59587;SDS011;45412;54.472;18.464;2022-09-09T16:08:41;12.70;;;8.00;;
59587;SDS011;45412;54.472;18.464;2022-09-09T16:11:33;14.30;;;8.20;;
59587;SDS011;45412;54.472;18.464;2022-09-09T16:14:22;13.50;;;8.10;;
59587;SDS011;45412;54.472;18.464;2022-09-09T16:17:12;12.70;;;7.40;;
59587;SDS011;45412;54.472;18.464;2022-09-09T16:20:02;14.10;;;8.70;;
59587;SDS011;45412;54.472;18.464;2022-09-09T16:22:52;13.40;;;8.50;;
59587;SDS011;45412;54.472;18.464;2022-09-09T16:25:40;12.90;;;8.00;;
59587;SDS011;45412;54.472;18.464;2022-09-09T16:28:29;13.50;;;7.90;;
59587;SDS011;45412;54.472;18.464;2022-09-09T16:31:20;14.30;;;8.50;;
59587;SDS011;45412;54.472;18.464;2022-09-09T16:34:13;17.70;;;9.30;;
59587;SDS011;45412;54.472;18.464;2022-09-09T16:37:02;13.70;;;8.90;;
59587;SDS011;45412;54.472;18.464;2022-09-09T16:39:51;14.00;;;8.40;;
59587;SDS011;45412;54.472;18.464;2022-09-09T16:42:39;14.90;;;9.40;;
59587;SDS011;45412;54.472;18.464;2022-09-09T16:45:27;15.10;;;8.20;;
59587;SDS011;45412;54.472;18.464;2022-09-09T16:48:16;13.10;;;7.50;;
59587;SDS011;45412;54.472;18.464;2022-09-09T16:51:07;13.40;;;9.10;;
59587;SDS011;45412;54.472;18.464;2022-09-09T16:54:00;14.20;;;8.90;;
59587;SDS011;45412;54.472;18.464;2022-09-09T16:56:50;14.80;;;8.80;;
59587;SDS011;45412;54.472;18.464;2022-09-09T16:59:38;14.10;;;9.10;;
59587;SDS011;45412;54.472;18.464;2022-09-09T17:02:26;15.60;;;9.60;;
59587;SDS011;45412;54.472;18.464;2022-09-09T17:05:16;14.60;;;9.30;;
59587;SDS011;45412;54.472;18.464;2022-09-09T17:08:04;14.90;;;9.20;;
59587;SDS011;45412;54.472;18.464;2022-09-09T17:10:53;14.40;;;8.40;;
59587;SDS011;45412;54.472;18.464;2022-09-09T17:13:42;13.80;;;7.90;;
59587;SDS011;45412;54.472;18.464;2022-09-09T17:16:32;15.90;;;9.40;;
59587;SDS011;45412;54.472;18.464;2022-09-09T17:19:23;16.30;;;9.60;;
59587;SDS011;45412;54.472;18.464;2022-09-09T17:22:13;15.10;;;9.80;;
59587;SDS011;45412;54.472;18.464;2022-09-09T17:25:05;17.90;;;9.70;;
59587;SDS011;45412;54.472;18.464;2022-09-09T17:27:53;16.70;;;9.30;;
59587;SDS011;45412;54.472;18.464;2022-09-09T17:30:41;15.80;;;9.40;;
59587;SDS011;45412;54.472;18.464;2022-09-09T17:33:33;14.70;;;9.50;;
59587;SDS011;45412;54.472;18.464;2022-09-09T17:36:27;15.50;;;9.60;;
59587;SDS011;45412;54.472;18.464;2022-09-09T17:39:20;15.90;;;10.10;;
59587;SDS011;45412;54.472;18.464;2022-09-09T17:42:07;15.10;;;10.10;;
59587;SDS011;45412;54.472;18.464;2022-09-09T17:44:56;16.90;;;9.70;;
59587;SDS011;45412;54.472;18.464;2022-09-09T17:47:44;17.00;;;10.00;;
59587;SDS011;45412;54.472;18.464;2022-09-09T17:50:32;17.60;;;10.90;;
59587;SDS011;45412;54.472;18.464;2022-09-09T17:53:21;17.00;;;11.00;;
59587;SDS011;45412;54.472;18.464;2022-09-09T17:56:11;18.10;;;10.60;;
59587;SDS011;45412;54.472;18.464;2022-09-09T17:59:03;16.90;;;11.10;;
59587;SDS011;45412;54.472;18.464;2022-09-09T18:01:53;18.40;;;11.80;;
59587;SDS011;45412;54.472;18.464;2022-09-09T18:04:42;18.50;;;11.30;;
59587;SDS011;45412;54.472;18.464;2022-09-09T18:07:30;20.90;;;12.60;;
59587;SDS011;45412;54.472;18.464;2022-09-09T18:10:18;19.40;;;12.10;;
59587;SDS011;45412;54.472;18.464;2022-09-09T18:13:05;19.90;;;11.90;;
59587;SDS011;45412;54.472;18.464;2022-09-09T18:15:57;21.30;;;13.00;;
59587;SDS011;45412;54.472;18.464;2022-09-09T18:18:46;19.60;;;12.90;;
59587;SDS011;45412;54.472;18.464;2022-09-09T18:21:36;20.20;;;13.20;;